Data for 03/24/2013

Time Sea-Level Adjusted Pressure Absolute Pressure Temperature Relative Humidity Dew Point   
(mb) (inHg) (mb) (inHg) (C) (F) (%) (C) (F)
00:05 1022 30.18 851 25.13 -8.7 16.4 63 -14.6 5.8
00:10 1022 30.18 851 25.13 -8.6 16.4 63 -14.5 5.8
00:15 1022 30.18 851 25.13 -8.6 16.5 63 -14.5 5.9
00:20 1022 30.18 851 25.13 -8.6 16.6 63 -14.4 6.1
00:25 1022 30.18 851 25.13 -8.5 16.7 63 -14.3 6.3
00:30 1022 30.18 851 25.13 -8.4 16.8 63 -14.3 6.3
00:35 1022 30.18 851 25.13 -8.4 16.8 63 -14.3 6.3
00:40 1022 30.18 851 25.13 -8.6 16.6 64 -14.2 6.4
00:45 1022 30.18 851 25.13 -8.8 16.2 65 -14.2 6.4
00:50 1022 30.18 851 25.13 -8.9 16.1 66 -14 6.7
00:55 1022 30.18 851 25.13 -8.8 16.1 67 -13.9 7
01:00 1022 30.18 851 25.13 -8.8 16.2 67 -13.8 7.2
01:05 1022 30.18 851 25.13 -8.7 16.4 68 -13.6 7.5
01:10 1022 30.18 851 25.13 -8.5 16.7 67 -13.6 7.6
01:15 1022 30.18 851 25.13 -8.6 16.5 70 -13.2 8.3
01:20 1022 30.18 851 25.13 -8.7 16.3 73 -12.7 9.2
01:25 1022 30.18 851 25.13 -8.7 16.4 74 -12.6 9.4
01:30 1022 30.18 851 25.13 -8.7 16.4 75 -12.2 10
01:35 1022 30.18 851 25.13 -8.6 16.5 77 -12 10.3
01:40 1022 30.18 851 25.13 -8.6 16.6 77 -11.9 10.6
01:45 1022 30.18 851 25.13 -8.7 16.4 78 -11.8 10.7
01:50 1022 30.18 851 25.13 -8.8 16.2 79 -11.8 10.8
01:55 1022 30.18 851 25.13 -8.9 16 80 -11.7 10.9
02:00 1022 30.18 851 25.13 -8.9 16.1 81 -11.6 11.1
02:05 1022 30.18 851 25.13 -8.8 16.2 81 -11.5 11.3
02:10 1022 30.18 851 25.13 -8.8 16.1 82 -11.4 11.5
02:15 1022 30.18 851 25.13 -8.8 16.1 83 -11.3 11.7
02:20 1022 30.18 851 25.13 -9 15.8 83 -11.5 11.4
02:25 1022 30.18 851 25.13 -9.2 15.5 83 -11.5 11.2
02:30 1022 30.18 851 25.13 -9.3 15.3 84 -11.5 11.3
02:35 1022 30.18 851 25.13 -9.3 15.3 84 -11.4 11.4
02:40 1022 30.18 851 25.13 -9.2 15.5 85 -11.3 11.6
02:45 1022 30.18 851 25.13 -9.1 15.6 85 -11.3 11.7
02:50 1022 30.18 851 25.13 -9 15.8 84 -11.3 11.7
02:55 1022 30.18 851 25.13 -9 15.9 84 -11.1 11.9
03:00 1022 30.18 851 25.13 -8.9 16 84 -11 12.1
03:05 1022 30.18 851 25.13 -8.8 16.1 85 -11 12.3
03:10 1022 30.18 851 25.13 -8.8 16.3 85 -10.9 12.4
03:15 1022 30.18 851 25.13 -8.8 16.2 85 -10.8 12.5
03:20 1022 30.18 851 25.13 -8.7 16.4 85 -10.8 12.6
03:25 1022 30.18 851 25.13 -8.6 16.5 86 -10.6 12.9
03:30 1022 30.18 851 25.13 -8.5 16.7 85 -10.6 12.8
03:35 1022 30.18 851 25.13 -8.5 16.7 85 -10.5 13
03:40 1022 30.18 851 25.13 -8.5 16.6 85 -10.7 12.8
03:45 1022 30.18 851 25.13 -8.6 16.6 85 -10.6 13
03:50 1022 30.18 851 25.13 -8.5 16.7 86 -10.5 13.1
03:55 1022 30.18 851 25.13 -8.4 17 85 -10.4 13.3
04:00 1022 30.18 851 25.13 -8.2 17.2 85 -10.3 13.5
04:05 1022 30.18 851 25.13 -8.2 17.2 86 -10.2 13.7
04:10 1022 30.18 851 25.13 -8.3 17.1 86 -10.2 13.7
04:15 1022 30.18 851 25.13 -8.4 16.9 87 -10.2 13.6
04:20 1022 30.18 852 25.16 -8.4 16.9 87 -10.1 13.8
04:25 1022 30.18 852 25.16 -8.4 16.9 87 -10.1 13.8
04:30 1022 30.18 852 25.16 -8.4 16.9 87 -10.2 13.6
04:35 1022 30.18 852 25.16 -8.4 16.8 86 -10.3 13.4
04:40 1022 30.18 852 25.16 -8.4 16.9 86 -10.3 13.4
04:45 1022 30.18 852 25.16 -8.3 17.1 84 -10.5 13.1
04:50 1022 30.18 852 25.16 -8.3 17.1 84 -10.6 12.9
04:55 1022 30.18 852 25.16 -8.3 17.1 84 -10.6 13
05:00 1022 30.18 852 25.16 -8.3 17.1 84 -10.6 12.9
05:05 1022 30.18 852 25.16 -8.3 17.1 84 -10.6 12.9
05:10 1022 30.18 852 25.16 -8.4 17 84 -10.7 12.8
05:15 1023 30.21 852 25.16 -8.4 16.9 83 -10.8 12.6
05:20 1023 30.21 852 25.16 -8.5 16.7 83 -10.8 12.5
05:25 1023 30.21 852 25.16 -8.7 16.4 86 -10.7 12.8
05:30 1023 30.21 852 25.16 -9 15.7 87 -10.8 12.6
05:35 1023 30.21 852 25.16 -9.2 15.5 88 -10.8 12.5
05:40 1023 30.21 852 25.16 -9.2 15.5 88 -10.8 12.6
05:45 1023 30.21 852 25.16 -9.2 15.4 88 -10.9 12.4
05:50 1023 30.21 852 25.16 -9.4 15.1 88 -11 12.2
05:55 1023 30.21 852 25.16 -9.4 15.1 88 -11 12.2
06:00 1023 30.21 852 25.16 -9.4 15 88 -11 12.1
06:05 1023 30.21 852 25.16 -9.4 15.1 88 -11 12.2
06:10 1023 30.21 852 25.16 -9.3 15.3 88 -10.9 12.4
06:15 1023 30.21 852 25.16 -9.1 15.6 88 -10.8 12.5
06:20 1023 30.21 852 25.16 -9.1 15.6 87 -10.8 12.5
06:25 1023 30.21 852 25.16 -9.1 15.5 87 -10.9 12.4
06:30 1023 30.21 852 25.16 -9.2 15.4 87 -10.9 12.3
06:35 1023 30.21 852 25.16 -9.2 15.4 87 -10.9 12.3
06:40 1023 30.21 852 25.16 -9.2 15.5 88 -10.9 12.5
06:45 1023 30.21 852 25.16 -9.2 15.5 87 -10.9 12.4
06:50 1023 30.21 852 25.16 -9.2 15.5 87 -10.9 12.4
06:55 1023 30.21 852 25.16 -9 15.7 87 -10.8 12.5
07:00 1023 30.21 852 25.16 -8.9 15.9 87 -10.8 12.6
07:05 1023 30.21 852 25.16 -8.8 16.1 86 -10.7 12.8
07:10 1023 30.21 852 25.16 -8.7 16.4 86 -10.7 12.8
07:15 1023 30.21 852 25.16 -8.7 16.4 86 -10.6 12.9
07:20 1023 30.21 852 25.16 -8.7 16.4 85 -10.7 12.7
07:25 1023 30.21 852 25.16 -8.9 16 86 -10.8 12.6
07:30 1023 30.21 852 25.16 -8.9 15.9 87 -10.7 12.7
07:35 1023 30.21 852 25.16 -8.8 16.2 86 -10.7 12.7
07:40 1023 30.21 852 25.16 -8.6 16.4 86 -10.6 12.9
07:45 1023 30.21 852 25.16 -8.5 16.8 85 -10.5 13.1
07:50 1023 30.21 852 25.16 -8.3 17.1 85 -10.4 13.2
07:55 1023 30.21 852 25.16 -8 17.6 82 -10.5 13.1
08:00 1023 30.21 853 25.19 -7.8 17.9 82 -10.5 13.2
08:05 1023 30.21 853 25.19 -7.7 18.2 80 -10.5 13.1
08:10 1023 30.21 853 25.19 -7.7 18.2 80 -10.5 13.1
08:15 1023 30.21 853 25.19 -7.7 18.1 80 -10.5 13
08:20 1023 30.21 853 25.19 -7.6 18.3 79 -10.6 12.9
08:25 1023 30.21 853 25.19 -7.4 18.7 77 -10.7 12.7
08:30 1023 30.21 853 25.19 -7.3 18.9 76 -10.8 12.6
08:35 1023 30.21 853 25.19 -7.3 18.9 77 -10.7 12.7
08:40 1023 30.21 853 25.19 -7.3 18.8 77 -10.7 12.7
08:45 1023 30.21 853 25.19 -7 19.3 76 -10.6 12.9
08:50 1023 30.21 853 25.19 -6.2 20.8 68 -11.3 11.7
08:55 1024 30.24 853 25.19 -5.8 21.6 67 -10.9 12.4
09:00 1024 30.24 853 25.19 -5.4 22.3 68 -10.5 13.1
09:05 1024 30.24 853 25.19 -5.5 22.1 71 -10 14.1
09:10 1024 30.24 853 25.19 -6 21.1 72 -10.3 13.5
09:15 1024 30.24 853 25.19 -5.6 22 70 -10.2 13.7
09:20 1024 30.24 853 25.19 -5.6 21.9 70 -10.3 13.5
09:25 1024 30.24 853 25.19 -5.7 21.7 71 -10.1 13.8
09:30 1024 30.24 853 25.19 -5.4 22.3 68 -10.3 13.5
09:35 1024 30.24 853 25.19 -5.8 21.6 74 -9.7 14.6
09:40 1024 30.24 853 25.19 -4.9 23.2 69 -9.7 14.5
09:45 1024 30.24 853 25.19 -4.3 24.2 69 -9.2 15.5
09:50 1024 30.24 853 25.19 -4.8 23.4 72 -9.1 15.6
09:55 1024 30.24 853 25.19 -4.6 23.8 68 -9.6 14.7
10:00 1024 30.24 853 25.19 -5 23 70 -9.7 14.6
10:05 1024 30.24 853 25.19 -5 23.1 67 -10.1 13.8
10:10 1024 30.24 853 25.19 -4.6 23.7 68 -9.7 14.5
10:15 1024 30.24 853 25.19 -4.2 24.5 66 -9.6 14.7
10:20 1024 30.24 853 25.19 -4.2 24.4 66 -9.7 14.5
10:25 1024 30.24 853 25.19 -4.3 24.3 66 -9.6 14.7
10:30 1024 30.24 853 25.19 -4.1 24.6 58 -11.1 12
10:35 1024 30.24 853 25.19 -3.8 25.1 59 -10.7 12.7
10:40 1024 30.24 853 25.19 -4.1 24.6 62 -10.3 13.5
10:45 1024 30.24 853 25.19 -4.1 24.6 56 -11.5 11.3
10:50 1024 30.24 853 25.19 -4.6 23.7 58 -11.7 11
10:55 1024 30.24 853 25.19 -4.7 23.6 58 -11.7 11
11:00 1024 30.24 853 25.19 -4.8 23.3 58 -11.9 10.7
11:05 1024 30.24 853 25.19 -5.1 22.8 61 -11.6 11.2
11:10 1024 30.24 853 25.19 -4.9 23.2 61 -11.2 11.8
11:15 1024 30.24 853 25.19 -5 23.1 60 -11.6 11.2
11:20 1024 30.24 853 25.19 -4.4 24.1 58 -11.5 11.4
11:25 1024 30.24 853 25.19 -3.4 25.9 55 -11.2 11.8
11:30 1024 30.24 853 25.19 -3.7 25.4 57 -11.1 12
11:35 1024 30.24 853 25.19 -4.1 24.7 54 -12.1 10.2
11:40 1024 30.24 853 25.19 -4.2 24.5 54 -12.2 10
11:45 1024 30.24 853 25.19 -4.7 23.5 58 -11.8 10.8
11:50 1024 30.24 853 25.19 -4.2 24.5 57 -11.6 11.2
11:55 1024 30.24 853 25.19 -4 24.8 54 -12 10.4
12:00 1024 30.24 853 25.19 -3.6 25.6 49 -12.8 9
12:05 1024 30.24 853 25.19 -3.1 26.5 47 -12.8 9
12:10 1023 30.21 853 25.19 -1.4 29.5 37 -14.1 6.5
12:15 1023 30.21 853 25.19 -0.3 31.4 40 -12.5 9.5
12:20 1023 30.21 853 25.19 -0.7 30.7 42 -12.1 10.2
12:25 1023 30.21 853 25.19 -1.8 28.8 42 -13 8.7
12:30 1023 30.21 853 25.19 -2.1 28.2 46 -12.3 9.8
12:35 1023 30.21 853 25.19 -3 26.5 47 -12.8 9
12:40 1023 30.21 853 25.19 -3.1 26.5 46 -13 8.5
12:45 1023 30.21 853 25.19 -2.5 27.4 43 -13.4 7.9
12:50 1023 30.21 853 25.19 -1.5 29.2 39 -13.9 7
12:55 1023 30.21 852 25.16 -1.5 29.2 40 -13.4 7.9
13:00 1023 30.21 852 25.16 -1.7 29 41 -13.1 8.4
13:05 1023 30.21 852 25.16 -1.7 28.9 41 -13.4 7.8
13:10 1023 30.21 852 25.16 -1.8 28.7 40 -13.7 7.3
13:15 1023 30.21 852 25.16 -1.3 29.7 37 -14.1 6.6
13:20 1023 30.21 852 25.16 -1 30.1 34 -15 5.1
13:25 1023 30.21 852 25.16 -1.1 30 37 -14 6.9
13:30 1023 30.21 852 25.16 -1.5 29.3 40 -13.5 7.6
13:35 1023 30.21 852 25.16 -2 28.3 40 -13.9 7
13:40 1023 30.21 852 25.16 -2.6 27.3 42 -13.8 7.1
13:45 1023 30.21 852 25.16 -2.3 27.9 42 -13.7 7.3
13:50 1023 30.21 852 25.16 -2.1 28.2 42 -13.5 7.8
13:55 1023 30.21 852 25.16 -2.3 27.8 40 -14.2 6.5
14:00 1023 30.21 852 25.16 -2.4 27.7 38 -15 5.1
14:05 1023 30.21 852 25.16 -2.2 28.1 42 -13.5 7.7
14:10 1023 30.21 852 25.16 -2 28.4 38 -14.5 5.9
14:15 1023 30.21 852 25.16 -1.9 28.5 40 -13.8 7.2
14:20 1023 30.21 852 25.16 -2.1 28.3 40 -14 6.8
14:25 1023 30.21 852 25.16 -1.9 28.6 38 -14.3 6.2
14:30 1023 30.21 852 25.16 -2 28.4 35 -15.4 4.3
14:35 1023 30.21 852 25.16 -1.8 28.8 37 -14.5 5.8
14:40 1023 30.21 852 25.16 -0.8 30.6 34 -14.8 5.4
14:45 1023 30.21 852 25.16 -1 30.2 34 -15.1 4.9
14:50 1023 30.21 852 25.16 -1.4 29.5 35 -15.1 4.8
14:55 1023 30.21 852 25.16 -1.1 30.1 36 -14.3 6.2
15:00 1023 30.21 852 25.16 -0.8 30.5 34 -15 5
15:05 1023 30.21 852 25.16 -1.6 29.2 36 -14.8 5.3
15:10 1023 30.21 852 25.16 -1.3 29.6 33 -15.7 3.8
15:15 1023 30.21 852 25.16 -1.1 30.1 35 -14.8 5.4
15:20 1023 30.21 852 25.16 -1.3 29.6 37 -14.1 6.6
15:25 1023 30.21 852 25.16 -1.8 28.7 37 -14.8 5.3
15:30 1023 30.21 852 25.16 -1.7 28.9 34 -15.5 4.1
15:35 1023 30.21 852 25.16 -1.8 28.7 35 -15.5 4.2
15:40 1023 30.21 852 25.16 -1.7 28.9 36 -14.8 5.3
15:45 1023 30.21 852 25.16 -1.4 29.4 33 -15.6 3.9
15:50 1023 30.21 852 25.16 -1.1 30 34 -15.1 4.8
15:55 1023 30.21 852 25.16 -1.3 29.6 34 -15.4 4.2
16:00 1023 30.21 852 25.16 -1.4 29.5 33 -15.7 3.8
16:05 1023 30.21 852 25.16 -1.2 29.9 32 -15.7 3.7
16:10 1023 30.21 852 25.16 -0.4 31.2 32 -15.4 4.3
16:15 1023 30.21 852 25.16 -0.9 30.3 33 -15.1 4.8
16:20 1022 30.18 852 25.16 -1 30.2 33 -15.4 4.2
16:25 1022 30.18 852 25.16 -0.9 30.3 33 -15.4 4.4
16:30 1022 30.18 852 25.16 -1 30.1 33 -15.6 4
16:35 1022 30.18 852 25.16 -1.4 29.6 32 -16 3.1
16:40 1022 30.18 852 25.16 -1.4 29.5 32 -16 3.2
16:45 1022 30.18 852 25.16 -1.4 29.4 32 -16 3.2
16:50 1022 30.18 852 25.16 -1.3 29.6 33 -15.7 3.7
16:55 1022 30.18 852 25.16 -1.1 30 32 -15.6 3.8
17:00 1022 30.18 852 25.16 -1.1 30 32 -16 3.2
17:05 1022 30.18 852 25.16 -1.2 29.9 32 -15.9 3.3
17:10 1022 30.18 852 25.16 -1.3 29.6 32 -16 3.3
17:15 1022 30.18 852 25.16 -1.2 29.8 32 -15.9 3.4
17:20 1022 30.18 852 25.16 -1.2 29.9 31 -16.1 2.9
17:25 1022 30.18 852 25.16 -1.1 30 32 -16 3.2
17:30 1022 30.18 852 25.16 -1.2 29.9 31 -16.4 2.5
17:35 1022 30.18 852 25.16 -1.3 29.6 33 -15.8 3.6
17:40 1022 30.18 852 25.16 -1.5 29.3 33 -15.9 3.4
17:45 1022 30.18 852 25.16 -1.7 28.9 32 -16.5 2.4
17:50 1022 30.18 852 25.16 -1.9 28.6 31 -16.9 1.5
17:55 1022 30.18 851 25.13 -1.9 28.5 32 -16.5 2.2
18:00 1022 30.18 851 25.13 -2 28.4 30 -17.3 0.9
18:05 1022 30.18 851 25.13 -2.1 28.3 30 -17.6 0.3
18:10 1022 30.18 851 25.13 -2.1 28.2 31 -17.2 1.1
18:15 1022 30.18 851 25.13 -2.2 28.1 31 -17.3 0.9
18:20 1022 30.18 851 25.13 -2.2 28.1 31 -17.2 1
18:25 1022 30.18 851 25.13 -2.3 27.9 31 -17.2 1
18:30 1022 30.18 851 25.13 -2.3 27.8 31 -17.1 1.2
18:35 1022 30.18 851 25.13 -2.4 27.8 30 -17.6 0.4
18:40 1022 30.18 851 25.13 -2.4 27.7 31 -17.2 1
18:45 1022 30.18 851 25.13 -2.5 27.4 31 -17.4 0.7
18:50 1022 30.18 851 25.13 -2.6 27.3 32 -17.4 0.7
18:55 1022 30.18 851 25.13 -2.8 27 33 -17.1 1.2
19:00 1022 30.18 851 25.13 -2.9 26.7 34 -16.7 1.9
19:05 1022 30.18 851 25.13 -3.2 26.2 36 -16.5 2.4
19:10 1022 30.18 851 25.13 -3.3 26 38 -15.8 3.6
19:15 1022 30.18 851 25.13 -3.4 25.9 39 -15.4 4.3
19:20 1022 30.18 851 25.13 -3.6 25.5 41 -15.1 4.7
19:25 1022 30.18 851 25.13 -3.8 25.2 43 -14.7 5.6
19:30 1022 30.18 851 25.13 -4.1 24.6 45 -14.5 6
19:35 1022 30.18 851 25.13 -4.3 24.2 46 -14.4 6.1
19:40 1022 30.18 851 25.13 -4.5 24 47 -14.2 6.5
19:45 1022 30.18 851 25.13 -4.6 23.8 48 -14.1 6.7
19:50 1022 30.18 851 25.13 -4.7 23.5 47 -14.3 6.2
19:55 1022 30.18 851 25.13 -4.9 23.2 48 -14.3 6.3
20:00 1022 30.18 851 25.13 -4.9 23.1 49 -14.1 6.6
20:05 1022 30.18 851 25.13 -5.1 22.8 49 -14.3 6.3
20:10 1022 30.18 851 25.13 -5.3 22.4 50 -14.3 6.3
20:15 1022 30.18 851 25.13 -5.5 22.2 47 -15.2 4.6
20:20 1022 30.18 851 25.13 -5.3 22.5 43 -15.9 3.4
20:25 1022 30.18 851 25.13 -5.4 22.3 45 -15.5 4.1
20:30 1022 30.18 851 25.13 -5.7 21.8 45 -15.8 3.5
20:35 1022 30.18 851 25.13 -5.8 21.6 47 -15.5 4
20:40 1022 30.18 851 25.13 -6 21.1 48 -15.4 4.3
20:45 1022 30.18 851 25.13 -6.2 20.9 48 -15.5 4.1
20:50 1022 30.18 851 25.13 -6.3 20.7 49 -15.4 4.3
20:55 1022 30.18 851 25.13 -6.4 20.5 50 -15.2 4.7
21:00 1022 30.18 851 25.13 -6.6 20.1 51 -15.1 4.9
21:05 1022 30.18 851 25.13 -6.8 19.8 51 -15.3 4.5
21:10 1022 30.18 851 25.13 -6.8 19.7 52 -15.2 4.7
21:15 1022 30.18 851 25.13 -6.8 19.7 51 -15.5 4.2
21:20 1022 30.18 851 25.13 -6.7 20 51 -15.2 4.6
21:25 1022 30.18 851 25.13 -6.9 19.5 51 -15.4 4.4
21:30 1022 30.18 851 25.13 -7 19.4 51 -15.6 3.9
21:35 1022 30.18 851 25.13 -6.8 19.7 50 -15.6 3.9
21:40 1022 30.18 851 25.13 -6.8 19.7 50 -15.6 3.9
21:45 1022 30.18 851 25.13 -7 19.4 51 -15.6 4
21:50 1022 30.18 851 25.13 -7.2 19.1 50 -15.9 3.5
21:55 1022 30.18 851 25.13 -6.9 19.6 48 -16.1 2.9
22:00 1022 30.18 851 25.13 -6.7 20 48 -15.9 3.4
22:05 1022 30.18 851 25.13 -6.8 19.7 49 -15.7 3.7
22:10 1022 30.18 851 25.13 -6.9 19.7 49 -15.8 3.5
22:15 1022 30.18 851 25.13 -6.8 19.7 49 -15.9 3.3
22:20 1022 30.18 851 25.13 -6.8 19.8 49 -15.9 3.3
22:25 1022 30.18 851 25.13 -6.9 19.6 48 -16.1 3
22:30 1022 30.18 851 25.13 -7.1 19.3 49 -16 3.2
22:35 1022 30.18 851 25.13 -7.3 18.9 51 -15.9 3.4
22:40 1022 30.18 851 25.13 -7.5 18.5 52 -15.8 3.5
22:45 1022 30.18 851 25.13 -7.7 18.1 51 -16.1 3
22:50 1022 30.18 851 25.13 -7.6 18.2 51 -16.2 2.8
22:55 1022 30.18 851 25.13 -7.4 18.7 49 -16.5 2.3
23:00 1022 30.18 851 25.13 -7.2 19 48 -16.4 2.5
23:05 1022 30.18 851 25.13 -7.2 19 48 -16.4 2.6
23:10 1022 30.18 851 25.13 -7.3 18.8 49 -16.3 2.6
23:15 1022 30.18 851 25.13 -7.3 18.9 49 -16.3 2.6
23:20 1022 30.18 851 25.13 -7.2 19.1 48 -16.5 2.4
23:25 1022 30.18 851 25.13 -7.1 19.2 47 -16.5 2.3
23:30 1022 30.18 851 25.13 -7 19.4 47 -16.5 2.3
23:35 1022 30.18 851 25.13 -7.1 19.3 47 -16.5 2.4
23:40 1021 30.15 851 25.13 -7 19.4 47 -16.4 2.5
23:45 1021 30.15 851 25.13 -7.1 19.2 48 -16.4 2.4
23:50 1021 30.15 851 25.13 -7.2 19.1 48 -16.3 2.6
23:55 1021 30.15 851 25.13 -7.2 19 48 -16.4 2.5
24:00 1021 30.15 851 25.13 -7.4 18.7 49 -16.3 2.7